Time;durP1;ratioP1;P1;durP2;ratioP2;P2;SDS_P1;SDS_P2;PMS_P1;PMS_P2;Temp;Humidity;BMP_temperature;BMP_pressure;BME280_temperature;BME280_humidity;BME280_pressure;Samples;Min_cycle;Max_cycle;Signal;HPM_P1;HPM_P2
2022/10/24 00:00:19;;;;;;;5.33;1.13;;;;;;;;;;4968078;28;20480;-56
2022/10/24 00:02:45;;;;;;;3.87;1.30;;;;;;;;;;4967848;28;20448;-56
2022/10/24 00:05:13;;;;;;;2.83;1.00;;;;;;;;;;4969597;28;20493;-56
2022/10/24 00:07:40;;;;;;;3.10;1.27;;;;;;;;;;4955856;28;20486;-57
2022/10/24 00:10:07;;;;;;;5.17;1.10;;;;;;;;;;4976907;28;20962;-57
2022/10/24 00:12:33;;;;;;;3.93;1.00;;;;;;;;;;4975039;28;20804;-57
2022/10/24 00:14:59;;;;;;;4.13;1.40;;;;;;;;;;4979018;28;20438;-57
2022/10/24 00:17:26;;;;;;;4.90;1.20;;;;;;;;;;4959002;28;21354;-59
2022/10/24 00:19:53;;;;;;;2.93;1.20;;;;;;;;;;4945081;28;20443;-57
2022/10/24 00:22:19;;;;;;;4.60;1.10;;;;;;;;;;4952991;28;20446;-57
2022/10/24 00:24:45;;;;;;;6.13;1.60;;;;;;;;;;4952606;28;20966;-55
2022/10/24 00:27:11;;;;;;;3.83;1.70;;;;;;;;;;4976027;28;20472;-57
2022/10/24 00:29:37;;;;;;;3.93;1.30;;;;;;;;;;4964650;28;20440;-57
2022/10/24 00:32:03;;;;;;;3.33;1.10;;;;;;;;;;4983230;28;20437;-57
2022/10/24 00:34:29;;;;;;;7.33;2.23;;;;;;;;;;4955109;28;20189;-57
2022/10/24 00:36:55;;;;;;;4.80;1.30;;;;;;;;;;4981433;28;20487;-57
2022/10/24 00:39:21;;;;;;;4.70;1.40;;;;;;;;;;4953960;28;20457;-57
2022/10/24 00:41:47;;;;;;;4.60;1.23;;;;;;;;;;4978323;28;20442;-57
2022/10/24 00:44:13;;;;;;;2.27;1.53;;;;;;;;;;4974298;28;20986;-57
2022/10/24 00:46:41;;;;;;;1.50;1.00;;;;;;;;;;4979502;28;20436;-57
2022/10/24 00:49:08;;;;;;;4.40;1.40;;;;;;;;;;4969479;28;20477;-57
2022/10/24 00:51:34;;;;;;;2.87;1.30;;;;;;;;;;5004058;28;20544;-57
2022/10/24 00:54:01;;;;;;;3.83;1.40;;;;;;;;;;4934286;28;20460;-57
2022/10/24 00:56:27;;;;;;;4.97;2.73;;;;;;;;;;5004195;28;20522;-57
2022/10/24 00:58:53;;;;;;;3.33;1.10;;;;;;;;;;4947939;28;20444;-56
2022/10/24 01:01:19;;;;;;;6.10;1.43;;;;;;;;;;4941995;28;21275;-57
2022/10/24 01:03:45;;;;;;;5.63;1.40;;;;;;;;;;4971650;28;20430;-55
2022/10/24 01:06:12;;;;;;;2.83;1.30;;;;;;;;;;4955336;28;20577;-55
2022/10/24 01:08:54;;;;;;;5.23;1.47;;;;;;;;;;4961683;28;20481;-57
2022/10/24 01:11:26;;;;;;;3.70;1.57;;;;;;;;;;4953011;28;20461;-57
2022/10/24 01:14:11;;;;;;;4.80;1.47;;;;;;;;;;4976014;28;21053;-57
2022/10/24 01:16:36;;;;;;;5.30;1.30;;;;;;;;;;4973709;28;20435;-57
2022/10/24 01:19:07;;;;;;;4.93;1.47;;;;;;;;;;4976864;28;20432;-57
2022/10/24 01:21:34;;;;;;;3.20;1.17;;;;;;;;;;4955072;28;20453;-57
2022/10/24 01:24:00;;;;;;;4.53;1.63;;;;;;;;;;4979917;28;20444;-57
2022/10/24 01:26:26;;;;;;;4.93;1.57;;;;;;;;;;4971920;28;20448;-58
2022/10/24 01:29:05;;;;;;;5.00;1.47;;;;;;;;;;4975636;28;20244;-56
2022/10/24 01:31:43;;;;;;;5.77;1.40;;;;;;;;;;4966585;28;20186;-57
2022/10/24 01:34:20;;;;;;;3.20;1.30;;;;;;;;;;4970665;28;20430;-57
2022/10/24 01:36:48;;;;;;;3.77;1.27;;;;;;;;;;4973411;28;20446;-59
2022/10/24 01:39:15;;;;;;;5.77;1.90;;;;;;;;;;4963627;28;20856;-58
2022/10/24 01:41:41;;;;;;;2.90;1.33;;;;;;;;;;4972865;28;20445;-57
2022/10/24 01:44:09;;;;;;;8.57;2.00;;;;;;;;;;4966884;28;20460;-55
2022/10/24 01:46:37;;;;;;;7.63;2.13;;;;;;;;;;4964187;28;20436;-57
2022/10/24 01:49:11;;;;;;;3.40;1.47;;;;;;;;;;4999394;28;20449;-57
2022/10/24 01:51:37;;;;;;;6.47;1.77;;;;;;;;;;4968902;28;21269;-58
2022/10/24 01:54:11;;;;;;;5.73;1.77;;;;;;;;;;4961886;28;20441;-57
2022/10/24 01:56:38;;;;;;;3.63;1.47;;;;;;;;;;4961233;28;20528;-58
2022/10/24 01:59:08;;;;;;;4.50;1.77;;;;;;;;;;4974346;28;20478;-57
2022/10/24 02:01:34;;;;;;;3.77;1.77;;;;;;;;;;4971447;28;20441;-57
2022/10/24 02:04:01;;;;;;;5.77;1.87;;;;;;;;;;4972288;28;20449;-57
2022/10/24 02:06:31;;;;;;;5.23;1.60;;;;;;;;;;4962625;28;20505;-57
2022/10/24 02:08:58;;;;;;;3.97;1.67;;;;;;;;;;4964772;28;20464;-57
2022/10/24 02:11:24;;;;;;;5.20;1.83;;;;;;;;;;4959406;28;20453;-56
2022/10/24 02:13:57;;;;;;;2.00;1.47;;;;;;;;;;4975957;28;20445;-57
2022/10/24 02:16:23;;;;;;;2.47;1.20;;;;;;;;;;4961214;28;20448;-56
2022/10/24 02:18:50;;;;;;;3.57;1.50;;;;;;;;;;4976514;28;20447;-57
2022/10/24 02:21:39;;;;;;;6.50;1.10;;;;;;;;;;4962036;28;20938;-57
2022/10/24 02:24:16;;;;;;;3.30;1.87;;;;;;;;;;4969338;28;20442;-60
2022/10/24 02:26:45;;;;;;;5.10;1.50;;;;;;;;;;4988592;28;21016;-57
2022/10/24 02:29:13;;;;;;;10.10;2.23;;;;;;;;;;4980018;28;20456;-58
2022/10/24 02:31:40;;;;;;;5.07;1.60;;;;;;;;;;4978987;28;20432;-57
2022/10/24 02:34:07;;;;;;;2.97;1.37;;;;;;;;;;4999421;28;20440;-57
2022/10/24 02:36:33;;;;;;;4.80;1.70;;;;;;;;;;4972601;28;20446;-57
2022/10/24 02:38:59;;;;;;;2.50;1.00;;;;;;;;;;4968554;28;21068;-57
2022/10/24 02:41:26;;;;;;;3.30;1.77;;;;;;;;;;4963803;28;20472;-57
2022/10/24 02:43:52;;;;;;;3.27;1.60;;;;;;;;;;5007684;28;20507;-56
2022/10/24 02:46:18;;;;;;;5.40;4.73;;;;;;;;;;4965018;28;20439;-56
2022/10/24 02:48:45;;;;;;;4.03;2.00;;;;;;;;;;4979149;28;20984;-57
2022/10/24 02:51:12;;;;;;;4.63;1.90;;;;;;;;;;4974447;28;20876;-57
2022/10/24 02:53:38;;;;;;;4.60;2.17;;;;;;;;;;5010526;28;20516;-57
2022/10/24 02:56:04;;;;;;;4.07;2.13;;;;;;;;;;4948531;28;20459;-58
2022/10/24 02:58:30;;;;;;;6.60;1.57;;;;;;;;;;4977571;28;20488;-56
2022/10/24 03:00:56;;;;;;;6.43;2.33;;;;;;;;;;4974162;28;20508;-57
2022/10/24 03:03:22;;;;;;;6.53;2.17;;;;;;;;;;4982500;28;20459;-57
2022/10/24 03:05:48;;;;;;;9.17;1.90;;;;;;;;;;4976908;28;20691;-57
2022/10/24 03:08:14;;;;;;;3.77;1.90;;;;;;;;;;4979804;28;20476;-57
2022/10/24 03:10:40;;;;;;;9.23;1.90;;;;;;;;;;4959115;28;20452;-56
2022/10/24 03:13:06;;;;;;;5.10;2.77;;;;;;;;;;4983740;28;20594;-57
2022/10/24 03:15:32;;;;;;;5.93;2.30;;;;;;;;;;4975283;28;20475;-57
2022/10/24 03:17:58;;;;;;;5.97;2.63;;;;;;;;;;4984718;28;20523;-55
2022/10/24 03:20:24;;;;;;;3.93;1.83;;;;;;;;;;4960776;28;20452;-57
2022/10/24 03:22:50;;;;;;;6.40;2.20;;;;;;;;;;4985769;28;20453;-57
2022/10/24 03:25:16;;;;;;;6.30;2.30;;;;;;;;;;4956233;28;21020;-57
2022/10/24 03:27:42;;;;;;;6.53;2.50;;;;;;;;;;4983933;28;20472;-59
2022/10/24 03:30:08;;;;;;;11.53;3.17;;;;;;;;;;4942038;28;20444;-56
2022/10/24 03:32:34;;;;;;;8.13;1.80;;;;;;;;;;4963478;28;20827;-55
2022/10/24 03:35:00;;;;;;;4.93;2.50;;;;;;;;;;4980218;28;20466;-56
2022/10/24 03:37:26;;;;;;;6.93;1.80;;;;;;;;;;4983202;28;20461;-56
2022/10/24 03:39:52;;;;;;;3.60;1.70;;;;;;;;;;4984601;28;20463;-56
2022/10/24 03:42:18;;;;;;;4.20;2.27;;;;;;;;;;4957961;28;20764;-58
2022/10/24 03:44:44;;;;;;;9.00;3.07;;;;;;;;;;4995282;28;20433;-58
2022/10/24 03:47:10;;;;;;;7.23;1.77;;;;;;;;;;4985204;28;20272;-58
2022/10/24 03:49:36;;;;;;;8.90;2.37;;;;;;;;;;4978216;28;20449;-57
2022/10/24 03:52:02;;;;;;;5.70;2.23;;;;;;;;;;4980155;28;20186;-60
2022/10/24 03:54:28;;;;;;;9.53;2.70;;;;;;;;;;4959881;28;21060;-57
2022/10/24 03:56:54;;;;;;;5.07;2.23;;;;;;;;;;4981273;28;20434;-57
2022/10/24 03:59:20;;;;;;;5.57;1.73;;;;;;;;;;4953138;28;20463;-57
2022/10/24 04:01:46;;;;;;;7.57;2.37;;;;;;;;;;4981373;28;20444;-57
2022/10/24 04:04:12;;;;;;;5.83;2.20;;;;;;;;;;4946631;28;21206;-58
2022/10/24 04:06:39;;;;;;;6.53;2.00;;;;;;;;;;4976326;28;20442;-53
2022/10/24 04:09:05;;;;;;;7.83;2.23;;;;;;;;;;4975227;28;20484;-56
2022/10/24 04:11:31;;;;;;;8.30;2.70;;;;;;;;;;4963149;28;20479;-56
2022/10/24 04:13:57;;;;;;;7.07;2.40;;;;;;;;;;4979169;28;20460;-55
2022/10/24 04:16:23;;;;;;;7.47;2.07;;;;;;;;;;4962600;28;20447;-56
2022/10/24 04:18:50;;;;;;;9.37;3.50;;;;;;;;;;4976917;28;20975;-55
2022/10/24 04:21:16;;;;;;;18.10;4.00;;;;;;;;;;4952766;28;20487;-56
2022/10/24 04:23:43;;;;;;;2.67;1.70;;;;;;;;;;4975816;28;20461;-57
2022/10/24 04:26:09;;;;;;;12.87;3.03;;;;;;;;;;4956317;28;20464;-56
2022/10/24 04:28:35;;;;;;;8.37;4.40;;;;;;;;;;4979043;28;20475;-55
2022/10/24 04:31:01;;;;;;;6.20;3.10;;;;;;;;;;4954592;28;20773;-55
2022/10/24 04:33:27;;;;;;;5.50;2.40;;;;;;;;;;4975183;28;20493;-57
2022/10/24 04:35:53;;;;;;;5.40;2.50;;;;;;;;;;4935018;28;20598;-54
2022/10/24 04:38:19;;;;;;;8.10;2.40;;;;;;;;;;4981549;28;21802;-57
2022/10/24 04:40:46;;;;;;;10.57;2.87;;;;;;;;;;4956494;28;20445;-57
2022/10/24 04:43:12;;;;;;;6.00;2.10;;;;;;;;;;4976152;28;20441;-56
2022/10/24 04:45:38;;;;;;;5.40;2.50;;;;;;;;;;4971265;28;20456;-56
2022/10/24 04:48:04;;;;;;;5.83;2.30;;;;;;;;;;4982181;28;20488;-56
2022/10/24 04:50:30;;;;;;;7.30;3.47;;;;;;;;;;4949750;28;20456;-57
2022/10/24 04:52:56;;;;;;;9.90;2.83;;;;;;;;;;4972226;28;20445;-56
2022/10/24 04:55:22;;;;;;;12.63;2.83;;;;;;;;;;4949650;28;20528;-56
2022/10/24 04:57:48;;;;;;;6.70;3.03;;;;;;;;;;4975230;28;20838;-56
2022/10/24 05:00:14;;;;;;;1999.90;999.90;;;;;;;;;;4952738;28;20441;-56
2022/10/24 05:02:40;;;;;;;1999.90;999.90;;;;;;;;;;4976403;28;20836;-56
2022/10/24 05:05:06;;;;;;;1999.90;999.90;;;;;;;;;;4931653;28;20806;-56
2022/10/24 05:07:32;;;;;;;1999.90;999.90;;;;;;;;;;4959595;28;20662;-56
2022/10/24 05:09:59;;;;;;;1999.90;999.90;;;;;;;;;;4968496;28;20465;-56
2022/10/24 05:12:25;;;;;;;1999.90;999.90;;;;;;;;;;4960352;28;20968;-55
2022/10/24 05:14:51;;;;;;;1999.90;999.90;;;;;;;;;;4971449;28;20442;-53
2022/10/24 05:17:17;;;;;;;1999.90;999.90;;;;;;;;;;4972765;28;20257;-53
2022/10/24 05:19:43;;;;;;;5.87;2.30;;;;;;;;;;4975106;28;20220;-53
2022/10/24 05:22:09;;;;;;;6.67;1.90;;;;;;;;;;4955981;28;20228;-53
2022/10/24 05:24:35;;;;;;;3.10;1.60;;;;;;;;;;4976126;28;20939;-53
2022/10/24 05:27:01;;;;;;;2.60;1.60;;;;;;;;;;4970523;28;20530;-54
2022/10/24 05:29:29;;;;;;;4.70;2.83;;;;;;;;;;4976786;28;20440;-54
2022/10/24 05:31:55;;;;;;;4.77;1.50;;;;;;;;;;4951303;28;20999;-52
2022/10/24 05:34:25;;;;;;;5.00;2.37;;;;;;;;;;4974446;28;20464;-54
2022/10/24 05:36:52;;;;;;;6.07;1.80;;;;;;;;;;4926369;28;21006;-54
2022/10/24 05:39:22;;;;;;;6.23;1.80;;;;;;;;;;4979074;28;20460;-54
2022/10/24 05:41:48;;;;;;;7.30;2.03;;;;;;;;;;4971754;28;20445;-55
2022/10/24 05:44:14;;;;;;;6.97;2.40;;;;;;;;;;4984563;28;20835;-55
2022/10/24 05:46:40;;;;;;;3.27;2.00;;;;;;;;;;4985211;28;20529;-55
2022/10/24 05:49:06;;;;;;;7.53;1.97;;;;;;;;;;4985428;28;20460;-55
2022/10/24 05:51:32;;;;;;;12.00;2.60;;;;;;;;;;4963850;28;20921;-56
2022/10/24 05:53:58;;;;;;;3.13;1.70;;;;;;;;;;4982672;28;20489;-54
2022/10/24 05:56:24;;;;;;;5.37;2.20;;;;;;;;;;4978886;28;20456;-54
2022/10/24 05:58:50;;;;;;;2.30;1.30;;;;;;;;;;4985238;28;20481;-55
2022/10/24 06:01:16;;;;;;;4.80;1.60;;;;;;;;;;4952879;28;20552;-55
2022/10/24 06:03:42;;;;;;;11.63;2.80;;;;;;;;;;4981399;28;20473;-56
2022/10/24 06:06:09;;;;;;;7.90;3.10;;;;;;;;;;4941172;28;20491;-56
2022/10/24 06:08:36;;;;;;;8.27;2.73;;;;;;;;;;4970893;28;21046;-56
2022/10/24 06:11:02;;;;;;;4.23;1.73;;;;;;;;;;4970316;28;20436;-55
2022/10/24 06:13:28;;;;;;;4.60;2.10;;;;;;;;;;4969655;28;20547;-54
2022/10/24 06:15:54;;;;;;;8.00;2.67;;;;;;;;;;4981428;28;20448;-57
2022/10/24 06:18:20;;;;;;;10.77;2.97;;;;;;;;;;4969384;28;20954;-56
2022/10/24 06:20:46;;;;;;;5.83;2.30;;;;;;;;;;4980950;28;20462;-56
2022/10/24 06:23:12;;;;;;;4.53;2.30;;;;;;;;;;4961685;28;20185;-57
2022/10/24 06:25:41;;;;;;;13.23;3.13;;;;;;;;;;4959973;28;20210;-57
2022/10/24 06:28:07;;;;;;;9.67;2.90;;;;;;;;;;4981478;28;20539;-57
2022/10/24 06:30:33;;;;;;;6.20;2.80;;;;;;;;;;4962762;28;20535;-55
2022/10/24 06:33:00;;;;;;;4.67;2.23;;;;;;;;;;4979016;28;20432;-56
2022/10/24 06:35:26;;;;;;;7.73;2.57;;;;;;;;;;4957361;28;20883;-57
2022/10/24 06:37:52;;;;;;;4.13;2.67;;;;;;;;;;4984972;28;20524;-56
2022/10/24 06:40:18;;;;;;;8.50;2.27;;;;;;;;;;4948919;28;20487;-58
2022/10/24 06:42:44;;;;;;;16.00;3.30;;;;;;;;;;4976010;28;20898;-57
2022/10/24 06:45:10;;;;;;;7.97;2.30;;;;;;;;;;4957611;28;20513;-55
2022/10/24 06:47:36;;;;;;;6.10;2.30;;;;;;;;;;4973041;28;20476;-58
2022/10/24 06:50:02;;;;;;;6.40;2.50;;;;;;;;;;4999354;28;23060;-58
2022/10/24 06:52:28;;;;;;;4.30;2.20;;;;;;;;;;4981616;28;20461;-57
2022/10/24 06:54:54;;;;;;;4.60;2.07;;;;;;;;;;4972935;28;20508;-57
2022/10/24 06:57:20;;;;;;;8.00;2.80;;;;;;;;;;4973906;28;20528;-57
2022/10/24 06:59:47;;;;;;;9.77;3.03;;;;;;;;;;4972641;28;21245;-56
2022/10/24 07:02:13;;;;;;;7.67;3.07;;;;;;;;;;4965830;28;20455;-55
2022/10/24 07:04:39;;;;;;;5.17;2.10;;;;;;;;;;4973193;28;20448;-54
2022/10/24 07:07:05;;;;;;;6.10;2.37;;;;;;;;;;4963961;28;21192;-58
2022/10/24 07:10:07;;;;;;;;;;;;;;;;;;;;;
2022/10/24 07:12:28;;;;;;;5.13;2.13;;;;;;;;;;4968872;28;20477;-58
2022/10/24 07:14:54;;;;;;;5.60;2.40;;;;;;;;;;4971034;28;20559;-56
2022/10/24 07:17:20;;;;;;;6.40;3.10;;;;;;;;;;4975982;28;20440;-57
2022/10/24 07:19:51;;;;;;;10.40;2.53;;;;;;;;;;4962292;28;20425;-58
2022/10/24 07:22:17;;;;;;;7.20;2.13;;;;;;;;;;4972226;28;20966;-57
2022/10/24 07:24:44;;;;;;;4.17;2.33;;;;;;;;;;4977385;28;20448;-58
2022/10/24 07:27:10;;;;;;;5.37;3.10;;;;;;;;;;4969385;28;20564;-60
2022/10/24 07:29:38;;;;;;;4.73;2.23;;;;;;;;;;4974344;28;20571;-57
2022/10/24 07:32:04;;;;;;;5.97;2.77;;;;;;;;;;4962448;28;20445;-59
2022/10/24 07:34:30;;;;;;;7.70;3.10;;;;;;;;;;4979070;28;20433;-57
2022/10/24 07:36:56;;;;;;;5.73;2.77;;;;;;;;;;4977780;28;20496;-58
2022/10/24 07:39:22;;;;;;;5.80;2.50;;;;;;;;;;4979205;28;20433;-58
2022/10/24 07:41:48;;;;;;;9.70;2.30;;;;;;;;;;4953725;28;20545;-56
2022/10/24 07:44:14;;;;;;;4.87;2.20;;;;;;;;;;4982531;28;20532;-58
2022/10/24 07:46:41;;;;;;;9.23;2.23;;;;;;;;;;4954177;28;20449;-58
2022/10/24 07:49:07;;;;;;;7.23;3.30;;;;;;;;;;4979195;28;20503;-58
2022/10/24 07:51:33;;;;;;;8.10;1.83;;;;;;;;;;4961286;28;20433;-58
2022/10/24 07:53:59;;;;;;;8.20;2.00;;;;;;;;;;4981517;28;20455;-57
2022/10/24 07:56:25;;;;;;;8.10;2.60;;;;;;;;;;4964778;28;20452;-57
2022/10/24 07:58:51;;;;;;;1999.90;999.90;;;;;;;;;;5011892;28;21037;-58
2022/10/24 08:01:18;;;;;;;1999.90;999.90;;;;;;;;;;5008927;28;20464;-57
2022/10/24 08:03:44;;;;;;;1999.90;999.90;;;;;;;;;;4974828;28;20957;-56
2022/10/24 08:06:13;;;;;;;1999.90;999.90;;;;;;;;;;4948401;28;20441;-56
2022/10/24 08:08:39;;;;;;;1999.90;999.90;;;;;;;;;;4986194;28;20503;-56
2022/10/24 08:11:09;;;;;;;1999.90;999.90;;;;;;;;;;4963050;28;20495;-57
2022/10/24 08:13:35;;;;;;;1999.90;999.90;;;;;;;;;;4975461;28;20455;-57
2022/10/24 08:16:01;;;;;;;1999.90;999.90;;;;;;;;;;4937164;28;20453;-57
2022/10/24 08:18:27;;;;;;;1999.90;999.90;;;;;;;;;;4981744;28;20441;-58
2022/10/24 08:20:57;;;;;;;1999.90;999.90;;;;;;;;;;4958037;28;20448;-56
2022/10/24 08:23:23;;;;;;;1999.90;999.90;;;;;;;;;;4978918;28;20477;-55
2022/10/24 08:25:49;;;;;;;1999.90;999.90;;;;;;;;;;4978833;28;20573;-56
2022/10/24 08:28:15;;;;;;;1999.90;999.90;;;;;;;;;;4980969;28;20488;-57
2022/10/24 08:30:41;;;;;;;1999.90;999.90;;;;;;;;;;4960279;28;20504;-58
2022/10/24 08:33:07;;;;;;;1999.90;999.90;;;;;;;;;;4979478;28;20446;-57
2022/10/24 08:35:33;;;;;;;1999.90;999.90;;;;;;;;;;4954695;28;20462;-55
2022/10/24 08:38:00;;;;;;;1999.90;999.90;;;;;;;;;;4966858;28;20438;-55
2022/10/24 08:40:26;;;;;;;1999.90;999.90;;;;;;;;;;4978629;28;20243;-55
2022/10/24 08:42:52;;;;;;;1999.90;999.90;;;;;;;;;;4979887;28;20872;-56
2022/10/24 08:45:20;;;;;;;1999.90;999.90;;;;;;;;;;4976712;28;20446;-56
2022/10/24 08:48:04;;;;;;;;;;;;;;;;;;;;;
2022/10/24 08:50:32;;;;;;;1999.90;999.90;;;;;;;;;;4942875;28;20436;-55
2022/10/24 08:53:04;;;;;;;1999.90;999.90;;;;;;;;;;4984116;28;20445;-56
2022/10/24 08:55:30;;;;;;;1999.90;999.90;;;;;;;;;;4951155;28;20939;-56
2022/10/24 08:57:57;;;;;;;1999.90;999.90;;;;;;;;;;4978093;28;20451;-56
2022/10/24 09:00:23;;;;;;;1999.90;999.90;;;;;;;;;;4957905;28;20189;-56
2022/10/24 09:03:01;;;;;;;1999.90;999.90;;;;;;;;;;4980622;28;20536;-56
2022/10/24 09:05:35;;;;;;;1999.90;999.90;;;;;;;;;;4987265;28;20452;-58
2022/10/24 09:08:16;;;;;;;1999.90;999.90;;;;;;;;;;5009354;28;20579;-57
2022/10/24 09:10:45;;;;;;;1999.90;999.90;;;;;;;;;;4961008;28;20908;-55
2022/10/24 09:13:14;;;;;;;1999.90;999.90;;;;;;;;;;5008661;28;20520;-57
2022/10/24 09:15:40;;;;;;;1999.90;999.90;;;;;;;;;;4970871;28;20441;-56
2022/10/24 09:18:09;;;;;;;1999.90;999.90;;;;;;;;;;4980803;28;20429;-57
2022/10/24 09:20:35;;;;;;;1999.90;999.90;;;;;;;;;;4979545;28;20500;-57
2022/10/24 09:23:03;;;;;;;1999.90;999.90;;;;;;;;;;4980741;28;20518;-57
2022/10/24 09:25:30;;;;;;;1999.90;999.90;;;;;;;;;;4983234;28;20433;-56
2022/10/24 09:27:57;;;;;;;1999.90;999.90;;;;;;;;;;5008216;28;20460;-56
2022/10/24 09:30:25;;;;;;;1999.90;999.90;;;;;;;;;;4978518;28;21206;-56
2022/10/24 09:32:51;;;;;;;1999.90;999.90;;;;;;;;;;4963134;28;20949;-56
2022/10/24 09:35:19;;;;;;;56.77;19.27;;;;;;;;;;4967637;28;20456;-56
2022/10/24 09:37:45;;;;;;;96.33;51.33;;;;;;;;;;4968299;28;20874;-57
2022/10/24 09:40:20;;;;;;;46.40;2.90;;;;;;;;;;4970523;28;20487;-56
2022/10/24 09:42:51;;;;;;;41.57;1.90;;;;;;;;;;4968474;28;21211;-56
2022/10/24 09:45:18;;;;;;;4.10;1.60;;;;;;;;;;4972259;28;20437;-56
2022/10/24 09:47:44;;;;;;;7.63;2.40;;;;;;;;;;4978767;28;21033;-57
2022/10/24 09:50:20;;;;;;;9.40;2.27;;;;;;;;;;4978678;28;20436;-56
2022/10/24 09:53:02;;;;;;;5.00;1.73;;;;;;;;;;4973281;28;21350;-56
2022/10/24 09:55:30;;;;;;;7.43;2.17;;;;;;;;;;4965854;28;20560;-55
2022/10/24 09:57:59;;;;;;;8.00;2.90;;;;;;;;;;4956958;28;21292;-56
2022/10/24 10:00:26;;;;;;;11.23;4.60;;;;;;;;;;4976367;28;20448;-56
2022/10/24 10:03:11;;;;;;;9.93;2.27;;;;;;;;;;4967985;28;20531;-55
2022/10/24 10:05:46;;;;;;;7.40;1.73;;;;;;;;;;4979102;28;20449;-55
2022/10/24 10:08:15;;;;;;;4.70;1.77;;;;;;;;;;4963355;28;21144;-56
2022/10/24 10:10:41;;;;;;;9.50;2.10;;;;;;;;;;5007885;28;20425;-56
2022/10/24 10:13:14;;;;;;;2.53;1.70;;;;;;;;;;4953848;28;20463;-56
2022/10/24 10:15:43;;;;;;;5.23;2.07;;;;;;;;;;4976038;28;20449;-55
2022/10/24 10:18:29;;;;;;;4.07;2.37;;;;;;;;;;4960347;28;23532;-58
2022/10/24 10:21:05;;;;;;;6.73;2.60;;;;;;;;;;4979806;28;20560;-57
2022/10/24 10:23:32;;;;;;;11.40;3.17;;;;;;;;;;4970479;28;20562;-56
2022/10/24 10:26:01;;;;;;;5.53;1.93;;;;;;;;;;4974778;28;20429;-56
2022/10/24 10:28:27;;;;;;;6.20;1.70;;;;;;;;;;4937839;28;21088;-56
2022/10/24 10:30:55;;;;;;;3.07;1.60;;;;;;;;;;4979375;28;20484;-57
2022/10/24 10:33:21;;;;;;;4.00;1.90;;;;;;;;;;4982876;28;20500;-55
2022/10/24 10:36:07;;;;;;;6.13;1.23;;;;;;;;;;4955083;28;20496;-57
2022/10/24 10:38:38;;;;;;;2.50;1.83;;;;;;;;;;4966452;28;20483;-54
2022/10/24 10:41:15;;;;;;;3.93;1.47;;;;;;;;;;5010825;28;20448;-53
2022/10/24 10:44:00;;;;;;;3.20;1.83;;;;;;;;;;4991158;28;20805;-55
2022/10/24 10:46:29;;;;;;;2.50;1.37;;;;;;;;;;4971816;28;23377;-54
2022/10/24 10:49:01;;;;;;;3.50;2.00;;;;;;;;;;4967078;28;20485;-55
2022/10/24 10:51:35;;;;;;;2.37;1.90;;;;;;;;;;4972432;28;20436;-54
2022/10/24 10:54:04;;;;;;;8.27;2.00;;;;;;;;;;4982790;28;21264;-60
2022/10/24 10:56:31;;;;;;;5.80;1.70;;;;;;;;;;4984533;28;20440;-54
2022/10/24 10:59:13;;;;;;;4.20;1.90;;;;;;;;;;5012288;28;21245;-56
2022/10/24 11:01:50;;;;;;;7.63;1.67;;;;;;;;;;4963773;28;20874;-54
2022/10/24 11:04:16;;;;;;;2.27;1.30;;;;;;;;;;4985719;28;20443;-54
2022/10/24 11:06:44;;;;;;;3.40;1.60;;;;;;;;;;4963207;28;20437;-55
2022/10/24 11:09:10;;;;;;;3.03;1.30;;;;;;;;;;4987405;28;20218;-55
2022/10/24 11:11:38;;;;;;;2.57;1.57;;;;;;;;;;4959043;28;20455;-59
2022/10/24 11:14:33;;;;;;;4.80;1.70;;;;;;;;;;4968875;28;20457;-56
2022/10/24 11:17:16;;;;;;;5.53;2.07;;;;;;;;;;4973659;28;20752;-55
2022/10/24 11:19:47;;;;;;;2.23;1.50;;;;;;;;;;4986136;28;20571;-57
2022/10/24 11:22:16;;;;;;;2.50;1.27;;;;;;;;;;4973382;28;20506;-57
2022/10/24 11:24:47;;;;;;;2.83;1.27;;;;;;;;;;4985075;28;20430;-56
2022/10/24 11:27:13;;;;;;;2.77;1.27;;;;;;;;;;4959760;28;20978;-55
2022/10/24 11:29:44;;;;;;;5.43;1.20;;;;;;;;;;4990404;28;20448;-56
2022/10/24 11:32:17;;;;;;;3.00;1.10;;;;;;;;;;4943839;28;22196;-55
2022/10/24 11:34:45;;;;;;;4.50;1.03;;;;;;;;;;4988605;28;20517;-54
2022/10/24 11:37:14;;;;;;;2.23;1.30;;;;;;;;;;4960464;28;20459;-54
2022/10/24 11:39:44;;;;;;;1.90;0.90;;;;;;;;;;4986735;28;20453;-55
2022/10/24 11:42:29;;;;;;;2.27;1.20;;;;;;;;;;4977111;28;20462;-54
2022/10/24 11:45:05;;;;;;;3.03;1.70;;;;;;;;;;4983499;28;20830;-55
2022/10/24 11:48:00;;;;;;;11.13;2.00;;;;;;;;;;4981027;28;20478;-54
2022/10/24 11:50:27;;;;;;;2.00;0.83;;;;;;;;;;4981957;28;20534;-56
2022/10/24 11:52:58;;;;;;;3.77;1.00;;;;;;;;;;4983669;28;20460;-55
2022/10/24 11:55:30;;;;;;;4.07;1.33;;;;;;;;;;5013994;28;20437;-55
2022/10/24 11:57:57;;;;;;;3.70;1.00;;;;;;;;;;4998212;28;20450;-58
2022/10/24 12:00:24;;;;;;;3.60;1.30;;;;;;;;;;4982522;28;21388;-57
2022/10/24 12:03:01;;;;;;;2.07;0.90;;;;;;;;;;4963241;28;20631;-58
2022/10/24 12:05:30;;;;;;;3.10;1.10;;;;;;;;;;4973256;28;20964;-55
2022/10/24 12:08:15;;;;;;;2.43;0.97;;;;;;;;;;4962918;28;20485;-56
2022/10/24 12:10:56;;;;;;;9.60;1.73;;;;;;;;;;4979097;28;20782;-57
2022/10/24 12:13:34;;;;;;;4.37;1.53;;;;;;;;;;4955278;28;20508;-56
2022/10/24 12:16:19;;;;;;;5.43;1.73;;;;;;;;;;4980534;28;20440;-56
2022/10/24 12:18:48;;;;;;;2.80;1.60;;;;;;;;;;4973875;28;20993;-56
2022/10/24 12:21:15;;;;;;;6.00;1.40;;;;;;;;;;5012398;28;20819;-57
2022/10/24 12:23:41;;;;;;;3.43;1.30;;;;;;;;;;4961011;28;20444;-55
2022/10/24 12:26:07;;;;;;;9.50;1.40;;;;;;;;;;4984676;28;21103;-56
2022/10/24 12:28:33;;;;;;;2.73;0.93;;;;;;;;;;4977357;28;20493;-56
2022/10/24 12:31:14;;;;;;;4.73;1.37;;;;;;;;;;4979202;28;20445;-56
2022/10/24 12:33:41;;;;;;;3.40;1.40;;;;;;;;;;4942831;28;20481;-58
2022/10/24 12:36:07;;;;;;;1.50;0.80;;;;;;;;;;5009040;28;20455;-56
2022/10/24 12:38:33;;;;;;;1.83;1.00;;;;;;;;;;4988163;28;20438;-56
2022/10/24 12:41:05;;;;;;;2.03;0.90;;;;;;;;;;4983561;28;20432;-56
2022/10/24 12:43:43;;;;;;;1.90;0.97;;;;;;;;;;4961402;28;20488;-56
2022/10/24 12:46:16;;;;;;;1.40;0.70;;;;;;;;;;5009327;28;20435;-57
2022/10/24 12:48:41;;;;;;;2.33;1.13;;;;;;;;;;4961780;28;20461;-56
2022/10/24 12:51:27;;;;;;;2.23;0.83;;;;;;;;;;4987644;28;21189;-56
2022/10/24 12:54:11;;;;;;;2.00;1.00;;;;;;;;;;4953775;28;20804;-56
2022/10/24 12:56:50;;;;;;;3.00;1.00;;;;;;;;;;4976247;28;20425;-56
2022/10/24 12:59:22;;;;;;;2.00;1.10;;;;;;;;;;4979803;28;20429;-55
2022/10/24 13:01:48;;;;;;;2.80;1.00;;;;;;;;;;4975855;28;20429;-56
2022/10/24 13:04:14;;;;;;;1.97;1.00;;;;;;;;;;4980118;28;20513;-57
2022/10/24 13:06:48;;;;;;;2.67;1.10;;;;;;;;;;4979997;28;20524;-56
2022/10/24 13:09:16;;;;;;;2.03;0.77;;;;;;;;;;4935579;28;20210;-56
2022/10/24 13:11:47;;;;;;;2.80;1.20;;;;;;;;;;4978588;28;20445;-55
2022/10/24 13:14:19;;;;;;;5.63;1.17;;;;;;;;;;4955522;28;20947;-55
2022/10/24 13:17:03;;;;;;;2.07;0.97;;;;;;;;;;4975639;28;20430;-56
2022/10/24 13:19:30;;;;;;;4.23;1.10;;;;;;;;;;4961901;28;21393;-57
2022/10/24 13:22:00;;;;;;;2.63;1.20;;;;;;;;;;4981762;28;21008;-56
2022/10/24 13:24:32;;;;;;;3.07;1.10;;;;;;;;;;4987620;28;20452;-56
2022/10/24 13:27:07;;;;;;;1.70;1.30;;;;;;;;;;4953512;28;20449;-56
2022/10/24 13:29:33;;;;;;;3.00;1.33;;;;;;;;;;4981400;28;20757;-56
2022/10/24 13:32:05;;;;;;;3.40;1.23;;;;;;;;;;4971934;28;20444;-55
2022/10/24 13:34:51;;;;;;;2.00;1.00;;;;;;;;;;4983049;28;20185;-53
2022/10/24 13:37:24;;;;;;;4.30;1.50;;;;;;;;;;4969232;28;20848;-55
2022/10/24 13:40:20;;;;;;;1.93;0.90;;;;;;;;;;4964620;28;20591;-60
2022/10/24 13:42:52;;;;;;;3.90;1.07;;;;;;;;;;4982381;28;20456;-57
2022/10/24 13:45:20;;;;;;;2.60;1.10;;;;;;;;;;4985571;28;20432;-56
2022/10/24 13:47:48;;;;;;;1.90;1.00;;;;;;;;;;5012260;28;20488;-56
2022/10/24 13:50:18;;;;;;;2.80;1.20;;;;;;;;;;4963118;28;20636;-56
2022/10/24 13:52:46;;;;;;;3.13;2.10;;;;;;;;;;4968598;28;20476;-55
2022/10/24 13:55:17;;;;;;;1.77;1.03;;;;;;;;;;4946696;28;20801;-57
2022/10/24 13:57:58;;;;;;;5.43;1.00;;;;;;;;;;4982071;28;20449;-56
2022/10/24 14:00:25;;;;;;;5.93;1.30;;;;;;;;;;4972189;28;20441;-56
2022/10/24 14:02:51;;;;;;;2.57;1.30;;;;;;;;;;4978432;28;20545;-55
2022/10/24 14:05:18;;;;;;;2.30;0.97;;;;;;;;;;5009106;28;21130;-55
2022/10/24 14:07:44;;;;;;;3.17;1.33;;;;;;;;;;5015293;28;21030;-54
2022/10/24 14:10:11;;;;;;;6.07;1.40;;;;;;;;;;4959270;28;20517;-54
2022/10/24 14:12:38;;;;;;;2.00;1.17;;;;;;;;;;5008797;28;20958;-56
2022/10/24 14:15:05;;;;;;;3.00;1.23;;;;;;;;;;4995304;28;22202;-55
2022/10/24 14:17:33;;;;;;;4.67;1.30;;;;;;;;;;4947470;28;20636;-56
2022/10/24 14:19:59;;;;;;;4.80;1.27;;;;;;;;;;4977416;28;20444;-54
2022/10/24 14:22:27;;;;;;;2.70;1.33;;;;;;;;;;4962531;28;20443;-57
2022/10/24 14:24:53;;;;;;;1.77;1.00;;;;;;;;;;4968063;28;20459;-55
2022/10/24 14:27:19;;;;;;;2.33;1.23;;;;;;;;;;4978996;28;20530;-56
2022/10/24 14:30:12;;;;;;;2.47;1.30;;;;;;;;;;4954143;28;20996;-55
2022/10/24 14:32:38;;;;;;;2.47;1.27;;;;;;;;;;4981684;28;20508;-55
2022/10/24 14:35:04;;;;;;;2.43;1.30;;;;;;;;;;4957961;28;21132;-54
2022/10/24 14:37:31;;;;;;;2.97;1.50;;;;;;;;;;5003889;28;20447;-55
2022/10/24 14:39:57;;;;;;;3.43;1.33;;;;;;;;;;4962787;28;20453;-57
2022/10/24 14:42:23;;;;;;;2.27;1.27;;;;;;;;;;4979439;28;21061;-54
2022/10/24 14:44:50;;;;;;;4.00;1.37;;;;;;;;;;4937495;28;20507;-55